Grande Italia — IBTF — position and weather

sailwx.info

Track history (hours):
 
Tides and Currents Weather Stations Pressure Air Temp Water Temp Dewpoint Dewpoint Depression Visibility Wind Speed Wind Dir Waves Ship Positions

Grande Italia

Last reported at 2017-Apr-24 09:28 UTC. Time now 2017-Apr-24 09:57 UTC.
Position N 32°49' E 035°00'.

Length 177 m; draft 7.9 m.

Type: Ship. MMSI: 247039300.

Date/timePositionNaut miles runAvg speedWind from/ knotsBaromVisibWave heightAir tempDewpointWater temp
2017-Apr-24 09:28N 32°49' E 035°00'0 0.0
2017-Apr-24 08:58N 32°49' E 035°00'0 0.0
2017-Apr-24 08:28N 32°49' E 035°00'0 0.0
2017-Apr-24 07:58N 32°49' E 035°00'0 0.0
2017-Apr-24 07:28N 32°49' E 035°00'0 0.0
2017-Apr-24 06:58N 32°49' E 035°00'0 0.0
2017-Apr-24 06:28N 32°49' E 035°00'0 0.0
2017-Apr-24 05:58N 32°49' E 035°00'0 0.0
2017-Apr-24 05:28N 32°49' E 035°00'0 0.0
2017-Apr-24 04:58N 32°49' E 035°00'0 0.0
2017-Apr-24 04:28N 32°49' E 035°00'0 0.0
2017-Apr-24 03:58N 32°49' E 035°00'0 0.0
2017-Apr-24 03:25N 32°49' E 035°00'0 0.0
2017-Apr-24 02:58N 32°49' E 035°00'0 0.0
2017-Apr-24 02:28N 32°49' E 035°00'0 0.0
2017-Apr-24 01:58N 32°49' E 035°00'0 0.0
2017-Apr-24 01:28N 32°49' E 035°00'0 0.0
2017-Apr-24 00:58N 32°49' E 035°00'0 0.0
2017-Apr-24 00:28N 32°49' E 035°00'0 0.0
2017-Apr-23 23:58N 32°49' E 035°00'0 0.0
2017-Apr-23 23:28N 32°49' E 035°00'0 0.0
2017-Apr-23 22:58N 32°49' E 035°00'0 0.0
2017-Apr-23 22:28N 32°49' E 035°00'0 0.0
2017-Apr-23 21:58N 32°49' E 035°00'0 0.0
2017-Apr-23 21:28N 32°49' E 035°00'0 0.0
2017-Apr-23 20:58N 32°49' E 035°00'0 0.0
2017-Apr-23 20:28N 32°49' E 035°00'0 0.0
2017-Apr-23 19:58N 32°49' E 035°00'0 0.0
2017-Apr-23 19:28N 32°49' E 035°00'0 0.0
2017-Apr-23 18:58N 32°49' E 035°00'1 1.3
2017-Apr-23 18:30N 32°49' E 035°01'2 3.6
2017-Apr-23 18:00N 32°51' E 035°00'1 2.4
2017-Apr-23 17:30N 32°52' E 034°59'4 7.2
2017-Apr-23 17:00N 32°53' E 034°55'713.7
2017-Apr-23 16:30N 32°49' E 034°49'815.2
2017-Apr-23 16:00N 32°42' E 034°46'815.2
2017-Apr-23 15:30N 32°35' E 034°43'815.1
2017-Apr-23 15:00N 32°28' E 034°41'714.9
2017-Apr-23 14:30N 32°20' E 034°38'1515.0
2017-Apr-23 13:30N 32°06' E 034°33'15 9.7
2017-Apr-23 11:58N 31°52' E 034°38'1 0.1
2017-Apr-23 03:11N 31°51' E 034°38'1 4.1
2017-Apr-23 03:00N 31°52' E 034°38'3 0.7
2017-Apr-22 23:05N 31°51' E 034°35'0 0.1
2017-Apr-22 22:53N 31°51' E 034°35'0 0.1
2017-Apr-22 22:23N 31°51' E 034°35'0 0.0
2017-Apr-22 21:53N 31°51' E 034°35'0 0.1
2017-Apr-22 21:29N 31°51' E 034°35'0 0.0
2017-Apr-22 20:59N 31°51' E 034°35'0 0.2
2017-Apr-22 20:29N 31°51' E 034°35'0 0.0
2017-Apr-22 19:56N 31°51' E 034°35'0 0.0
2017-Apr-22 19:29N 31°51' E 034°35'0 0.0
2017-Apr-22 18:59N 31°51' E 034°35'0 0.0
2017-Apr-22 18:29N 31°51' E 034°35'0 0.0
2017-Apr-22 17:59N 31°51' E 034°35'0 0.0
2017-Apr-22 17:29N 31°51' E 034°35'0 0.0
2017-Apr-22 16:56N 31°51' E 034°35'0 0.1
2017-Apr-22 16:29N 31°51' E 034°35'0 0.1
2017-Apr-22 15:59N 31°51' E 034°35'0 0.0
2017-Apr-22 15:29N 31°51' E 034°35'0 0.1
2017-Apr-22 14:59N 31°51' E 034°35'1 1.9
2017-Apr-22 14:27N 31°51' E 034°33'4716.7
2017-Apr-22 11:38N 32°12' E 033°44'317.8
2017-Apr-22 11:29N 32°13' E 033°41'917.8
2017-Apr-22 11:00N 32°17' E 033°32'917.8
2017-Apr-22 10:29N 32°22' E 033°23'818.0
2017-Apr-22 10:00N 32°26' E 033°14'917.9
2017-Apr-22 09:30N 32°30' E 033°05'2218.2
2017-Apr-22 08:18N 32°41' E 032°42'517.6
2017-Apr-22 08:01N 32°45' E 032°38'917.8
2017-Apr-22 07:30N 32°51' E 032°30'917.7
2017-Apr-22 07:00N 32°56' E 032°21'917.6
2017-Apr-22 06:30N 33°01' E 032°13'917.4
2017-Apr-22 06:00N 33°06' E 032°04'917.4
2017-Apr-22 05:31N 33°11' E 031°56'917.5
2017-Apr-22 05:00N 33°17' E 031°47'917.7
2017-Apr-22 04:31N 33°22' E 031°39'1017.6
2017-Apr-22 03:56N 33°27' E 031°29'42415.2
2017-Apr-21 00:08N 37°16' E 024°12'514.3
2017-Apr-20 23:46N 37°20' E 024°08'414.4
2017-Apr-20 23:30N 37°23' E 024°05'714.4
2017-Apr-20 23:00N 37°29' E 023°59'714.1
2017-Apr-20 22:30N 37°33' E 023°52'714.3
2017-Apr-20 22:00N 37°38' E 023°45'714.3
2017-Apr-20 21:30N 37°44' E 023°40'714.6
2017-Apr-20 21:00N 37°50' E 023°37'612.8
2017-Apr-20 20:31N 37°57' E 023°36'1 1.8
2017-Apr-20 19:59N 37°58' E 023°36'0 0.0
2017-Apr-20 19:29N 37°58' E 023°36'0 0.0
2017-Apr-20 18:59N 37°58' E 023°36'0 0.0
2017-Apr-20 18:29N 37°58' E 023°36'0 0.0
2017-Apr-20 17:59N 37°58' E 023°36'0 0.0
2017-Apr-20 17:29N 37°58' E 023°36'0 0.0
2017-Apr-20 16:59N 37°58' E 023°36'0 0.0
2017-Apr-20 16:29N 37°58' E 023°36'0 0.0
2017-Apr-20 15:59N 37°58' E 023°36'0 0.0
2017-Apr-20 15:29N 37°58' E 023°36'0 0.0
2017-Apr-20 14:56N 37°58' E 023°36'0 0.0
2017-Apr-20 14:29N 37°58' E 023°36'0 0.0
2017-Apr-20 13:29N 37°58' E 023°36'0 0.0
2017-Apr-20 12:59N 37°58' E 023°36'0 0.0
2017-Apr-20 12:29N 37°58' E 023°36'0 0.0
2017-Apr-20 11:59N 37°58' E 023°36'0 0.0
2017-Apr-20 11:29N 37°58' E 023°36'0 0.0
2017-Apr-20 10:59N 37°58' E 023°36'0 0.0
2017-Apr-20 10:29N 37°58' E 023°36'0 0.0
2017-Apr-20 09:59N 37°58' E 023°36'0 0.0
2017-Apr-20 09:29N 37°58' E 023°36'0 0.0
2017-Apr-20 08:59N 37°58' E 023°36'0 0.0
2017-Apr-20 08:30N 37°58' E 023°36'1 1.1
2017-Apr-20 08:00N 37°57' E 023°36'2 4.8
2017-Apr-20 07:30N 37°55' E 023°36'0 0.8
2017-Apr-20 07:00N 37°54' E 023°36'0 0.5
2017-Apr-20 06:30N 37°54' E 023°36'1 2.8
2017-Apr-20 06:00N 37°53' E 023°35'611.0
2017-Apr-20 05:30N 37°48' E 023°32'0 0.7
2017-Apr-20 04:58N 37°47' E 023°32'0 0.1
2017-Apr-20 04:28N 37°47' E 023°32'0 0.0
2017-Apr-20 03:58N 37°47' E 023°32'0 0.0
2017-Apr-20 03:28N 37°47' E 023°32'0 0.0
2017-Apr-20 02:58N 37°47' E 023°32'0 0.0
2017-Apr-20 02:28N 37°47' E 023°32'0 0.0
2017-Apr-20 01:58N 37°47' E 023°32'0 0.0
2017-Apr-20 01:28N 37°47' E 023°32'0 0.1
2017-Apr-20 00:58N 37°47' E 023°32'0 0.0
2017-Apr-20 00:28N 37°47' E 023°32'0 0.0
2017-Apr-19 23:58N 37°47' E 023°32'0 0.1
2017-Apr-19 23:28N 37°47' E 023°32'0 0.1
2017-Apr-19 22:58N 37°47' E 023°32'0 0.0
2017-Apr-19 22:28N 37°47' E 023°32'0 0.1
2017-Apr-19 21:58N 37°47' E 023°32'0 0.0
2017-Apr-19 21:28N 37°47' E 023°32'0 0.0
2017-Apr-19 20:58N 37°48' E 023°32'0 0.1
2017-Apr-19 20:28N 37°48' E 023°32'0 0.0
2017-Apr-19 19:58N 37°48' E 023°32'0 0.1
2017-Apr-19 19:28N 37°48' E 023°32'0 0.0
2017-Apr-19 18:58N 37°48' E 023°32'0 0.0
2017-Apr-19 18:28N 37°47' E 023°32'0 0.1
2017-Apr-19 17:58N 37°48' E 023°32'0 0.0
2017-Apr-19 17:28N 37°48' E 023°32'0 0.1
2017-Apr-19 16:58N 37°47' E 023°32'0 0.1
2017-Apr-19 16:28N 37°48' E 023°32'0 0.1
2017-Apr-19 15:58N 37°48' E 023°32'0 0.0
2017-Apr-19 15:28N 37°47' E 023°32'0 0.0
2017-Apr-19 14:58N 37°48' E 023°32'0 0.2
2017-Apr-19 14:28N 37°47' E 023°32'3 2.8
2017-Apr-19 13:30N 37°50' E 023°34'611.3
2017-Apr-19 13:00N 37°48' E 023°41'713.3
2017-Apr-19 12:30N 37°42' E 023°44'714.3
2017-Apr-19 12:00N 37°35' E 023°44'815.0
2017-Apr-19 11:30N 37°28' E 023°41'815.3
2017-Apr-19 11:00N 37°20' E 023°39'2815.4
2017-Apr-19 09:09N 36°53' E 023°30'416.0
2017-Apr-19 08:55N 36°49' E 023°28'816.1
2017-Apr-19 08:24N 36°42' E 023°24'62514.0
2017-Apr-17 11:46N 44°13' E 013°56'415.2
2017-Apr-17 11:30N 44°16' E 013°53'715.1
2017-Apr-17 11:00N 44°23' E 013°47'714.9
2017-Apr-17 10:30N 44°29' E 013°42'714.8
2017-Apr-17 10:00N 44°35' E 013°36'714.8
2017-Apr-17 09:30N 44°41' E 013°31'714.6
2017-Apr-17 09:00N 44°48' E 013°25'714.5
2017-Apr-17 08:30N 44°53' E 013°19'714.6
2017-Apr-17 08:00N 44°60' E 013°13'714.9
2017-Apr-17 07:30N 45°05' E 013°07'714.6
2017-Apr-17 07:00N 45°12' E 013°03'714.9
2017-Apr-17 06:30N 45°19' E 013°01'713.3
2017-Apr-17 06:00N 45°25' E 013°06'714.2
2017-Apr-17 05:30N 45°30' E 013°13'714.4
2017-Apr-17 05:00N 45°34' E 013°21'714.8
2017-Apr-17 04:30N 45°37' E 013°31'612.4
2017-Apr-17 04:01N 45°35' E 013°39'4 7.2
2017-Apr-17 03:30N 45°33' E 013°44'0 0.5
2017-Apr-17 02:57N 45°33' E 013°44'0 0.0
2017-Apr-17 02:27N 45°33' E 013°44'0 0.0
2017-Apr-17 01:54N 45°33' E 013°44'0 0.0
2017-Apr-17 01:27N 45°33' E 013°44'0 0.0
2017-Apr-17 01:00N 45°33' E 013°44'0 0.0
2017-Apr-17 00:30N 45°33' E 013°44'0 0.0
2017-Apr-17 00:00N 45°33' E 013°44'0 0.0
2017-Apr-16 23:27N 45°33' E 013°44'0 0.0
2017-Apr-16 23:00N 45°33' E 013°44'0 0.0
2017-Apr-16 22:30N 45°33' E 013°44'0 0.0
2017-Apr-16 22:00N 45°33' E 013°44'0 0.0
2017-Apr-16 21:30N 45°33' E 013°44'0 0.0
2017-Apr-16 21:00N 45°33' E 013°44'0 0.0
2017-Apr-16 20:27N 45°33' E 013°44'0 0.0
2017-Apr-16 20:00N 45°33' E 013°44'0 0.0
2017-Apr-16 19:30N 45°33' E 013°44'0 0.0
2017-Apr-16 19:00N 45°33' E 013°44'0 0.0
2017-Apr-16 18:30N 45°33' E 013°44'0 0.0
2017-Apr-16 18:00N 45°33' E 013°44'0 0.0
2017-Apr-16 17:27N 45°33' E 013°44'0 0.0
2017-Apr-16 16:57N 45°33' E 013°44'0 0.0
2017-Apr-16 16:30N 45°33' E 013°44'0 0.0
2017-Apr-16 15:51N 45°33' E 013°44'0 0.0
2017-Apr-16 15:27N 45°33' E 013°44'0 0.0
2017-Apr-16 15:00N 45°33' E 013°44'0 0.0
2017-Apr-16 14:00N 45°33' E 013°44'0 0.0
2017-Apr-16 13:30N 45°33' E 013°44'0 0.0
2017-Apr-16 13:00N 45°33' E 013°44'0 0.0
2017-Apr-16 12:30N 45°33' E 013°44'0 0.0
2017-Apr-16 12:00N 45°33' E 013°44'0 0.0
2017-Apr-16 11:30N 45°33' E 013°44'0 0.0
2017-Apr-16 11:00N 45°33' E 013°44'0 0.0
2017-Apr-16 10:30N 45°33' E 013°44'0 0.0
2017-Apr-16 10:00N 45°33' E 013°44'0 0.0
2017-Apr-16 09:30N 45°33' E 013°44'0 0.0
2017-Apr-16 09:00N 45°33' E 013°44'0 0.0
2017-Apr-16 08:30N 45°33' E 013°44'0 0.0
2017-Apr-16 07:54N 45°33' E 013°44'0 0.0
2017-Apr-16 07:24N 45°33' E 013°44'0 0.0
2017-Apr-16 07:00N 45°33' E 013°44'0 0.0
2017-Apr-16 06:27N 45°33' E 013°44'0 0.0
2017-Apr-16 05:57N 45°33' E 013°44'0 0.0
2017-Apr-16 05:30N 45°33' E 013°44'0 0.0
2017-Apr-16 05:00N 45°33' E 013°44'0 0.0
2017-Apr-16 04:30N 45°33' E 013°44'0 0.0
2017-Apr-16 03:57N 45°33' E 013°44'0 0.0
2017-Apr-16 03:24N 45°33' E 013°44'0 0.0
2017-Apr-16 03:00N 45°33' E 013°44'0 0.0
2017-Apr-16 02:30N 45°33' E 013°44'0 0.0
2017-Apr-16 02:00N 45°33' E 013°44'0 0.0
2017-Apr-16 01:30N 45°33' E 013°44'0 0.0
2017-Apr-16 00:51N 45°33' E 013°44'0 0.0
2017-Apr-16 00:30N 45°33' E 013°44'0 0.0
2017-Apr-16 00:00N 45°33' E 013°44'0 0.0
2017-Apr-15 23:30N 45°33' E 013°44'0 0.0
2017-Apr-15 22:57N 45°33' E 013°44'0 0.0
2017-Apr-15 22:30N 45°33' E 013°44'0 0.0
2017-Apr-15 22:00N 45°33' E 013°44'0 0.0
2017-Apr-15 21:30N 45°33' E 013°44'0 0.0
2017-Apr-15 21:00N 45°33' E 013°44'0 0.0
2017-Apr-15 20:30N 45°33' E 013°44'0 0.0
2017-Apr-15 20:00N 45°33' E 013°44'0 0.0
2017-Apr-15 19:30N 45°33' E 013°44'0 0.0
2017-Apr-15 19:00N 45°33' E 013°44'0 0.0
2017-Apr-15 18:24N 45°33' E 013°44'0 0.0
2017-Apr-15 18:00N 45°33' E 013°44'0 0.0
2017-Apr-15 17:30N 45°33' E 013°44'0 0.0
2017-Apr-15 16:54N 45°33' E 013°44'0 0.0
2017-Apr-15 16:30N 45°33' E 013°44'0 0.0
2017-Apr-15 15:51N 45°33' E 013°44'0 0.0
2017-Apr-15 15:27N 45°33' E 013°44'0 0.0
2017-Apr-15 15:00N 45°33' E 013°44'0 0.0
2017-Apr-15 14:00N 45°33' E 013°44'2 3.6
2017-Apr-15 13:30N 45°34' E 013°42'510.7
2017-Apr-15 13:00N 45°36' E 013°35'714.6
2017-Apr-15 12:30N 45°43' E 013°37'5 9.8
2017-Apr-15 12:00N 45°47' E 013°33'0 0.1
2017-Apr-15 11:30N 45°47' E 013°33'0 0.0
2017-Apr-15 11:00N 45°47' E 013°33'0 0.0
2017-Apr-15 10:30N 45°47' E 013°33'0 0.0
2017-Apr-15 10:00N 45°47' E 013°33'0 0.0
2017-Apr-15 09:27N 45°47' E 013°33'0 0.0
2017-Apr-15 09:00N 45°47' E 013°33'0 0.0
2017-Apr-15 08:24N 45°47' E 013°33'0 0.0
2017-Apr-15 08:00N 45°47' E 013°33'0 0.0
2017-Apr-15 07:30N 45°47' E 013°33'0 0.0
2017-Apr-15 07:00N 45°47' E 013°33'0 0.0
2017-Apr-15 06:30N 45°47' E 013°33'0 0.0
2017-Apr-15 06:00N 45°47' E 013°33'0 0.0
2017-Apr-15 05:27N 45°47' E 013°33'0 0.0
2017-Apr-15 05:00N 45°47' E 013°33'0 0.0
2017-Apr-15 04:30N 45°47' E 013°33'0 0.0
2017-Apr-15 04:00N 45°47' E 013°33'0 0.0
2017-Apr-15 03:27N 45°47' E 013°33'0 0.0
2017-Apr-15 03:00N 45°47' E 013°33'0 0.0
2017-Apr-15 02:30N 45°47' E 013°33'0 0.0
2017-Apr-15 01:57N 45°47' E 013°33'0 0.0
2017-Apr-15 01:30N 45°47' E 013°33'0 0.0
2017-Apr-15 01:00N 45°47' E 013°33'0 0.0
2017-Apr-15 00:24N 45°47' E 013°33'0 0.0
2017-Apr-15 00:00N 45°47' E 013°33'0 0.0
2017-Apr-14 23:27N 45°47' E 013°33'0 0.0
2017-Apr-14 23:00N 45°47' E 013°33'0 0.0
2017-Apr-14 22:30N 45°47' E 013°33'0 0.0
2017-Apr-14 21:45N 45°47' E 013°33'0 0.0
2017-Apr-14 21:30N 45°47' E 013°33'0 0.0
2017-Apr-14 20:54N 45°47' E 013°33'0 0.0
2017-Apr-14 20:27N 45°47' E 013°33'0 0.0
2017-Apr-14 20:00N 45°47' E 013°33'0 0.0
2017-Apr-14 19:30N 45°47' E 013°33'0 0.0
2017-Apr-14 19:00N 45°47' E 013°33'0 0.0
2017-Apr-14 18:30N 45°47' E 013°33'0 0.0
2017-Apr-14 17:57N 45°47' E 013°33'0 0.0
2017-Apr-14 17:27N 45°47' E 013°33'0 0.0
2017-Apr-14 17:00N 45°47' E 013°33'0 0.0
2017-Apr-14 16:30N 45°47' E 013°33'0 0.0
2017-Apr-14 16:00N 45°47' E 013°33'0 0.0
2017-Apr-14 15:30N 45°47' E 013°33'0 0.0
2017-Apr-14 15:00N 45°47' E 013°33'0 0.0
2017-Apr-14 14:00N 45°47' E 013°33'0 0.0
2017-Apr-14 13:27N 45°47' E 013°33'0 0.0
2017-Apr-14 13:00N 45°47' E 013°33'0 0.0
2017-Apr-14 12:27N 45°47' E 013°33'0 0.0
2017-Apr-14 12:00N 45°47' E 013°33'0 0.0
2017-Apr-14 11:27N 45°47' E 013°33'0 0.0
2017-Apr-14 11:00N 45°47' E 013°33'0 0.0
2017-Apr-14 10:30N 45°47' E 013°33'0 0.0
2017-Apr-14 09:54N 45°47' E 013°33'0 0.0
2017-Apr-14 09:30N 45°47' E 013°33'  
Track history (hours):
 
Tides and Currents Weather Stations Pressure Air Temp Water Temp Dewpoint Dewpoint Depression Visibility Wind Speed Wind Dir Waves Ship Positions

Grande Italia

Last reported at 2017-Apr-24 09:28 UTC. Time now 2017-Apr-24 09:57 UTC.
Position N 32°49' E 035°00'.

Length 177 m; draft 7.9 m.

Type: Ship. MMSI: 247039300.

Date/timePositionNaut miles runAvg speedWind from/ knotsBaromVisibWave heightAir tempDewpointWater temp
2017-Apr-24 09:28N 32°49' E 035°00'0 0.0
2017-Apr-24 08:58N 32°49' E 035°00'0 0.0
2017-Apr-24 08:28N 32°49' E 035°00'0 0.0
2017-Apr-24 07:58N 32°49' E 035°00'0 0.0
2017-Apr-24 07:28N 32°49' E 035°00'0 0.0
2017-Apr-24 06:58N 32°49' E 035°00'0 0.0
2017-Apr-24 06:28N 32°49' E 035°00'0 0.0
2017-Apr-24 05:58N 32°49' E 035°00'0 0.0
2017-Apr-24 05:28N 32°49' E 035°00'0 0.0
2017-Apr-24 04:58N 32°49' E 035°00'0 0.0
2017-Apr-24 04:28N 32°49' E 035°00'0 0.0
2017-Apr-24 03:58N 32°49' E 035°00'0 0.0
2017-Apr-24 03:25N 32°49' E 035°00'0 0.0
2017-Apr-24 02:58N 32°49' E 035°00'0 0.0
2017-Apr-24 02:28N 32°49' E 035°00'0 0.0
2017-Apr-24 01:58N 32°49' E 035°00'0 0.0
2017-Apr-24 01:28N 32°49' E 035°00'0 0.0
2017-Apr-24 00:58N 32°49' E 035°00'0 0.0
2017-Apr-24 00:28N 32°49' E 035°00'0 0.0
2017-Apr-23 23:58N 32°49' E 035°00'0 0.0
2017-Apr-23 23:28N 32°49' E 035°00'0 0.0
2017-Apr-23 22:58N 32°49' E 035°00'0 0.0
2017-Apr-23 22:28N 32°49' E 035°00'0 0.0
2017-Apr-23 21:58N 32°49' E 035°00'0 0.0
2017-Apr-23 21:28N 32°49' E 035°00'0 0.0
2017-Apr-23 20:58N 32°49' E 035°00'0 0.0
2017-Apr-23 20:28N 32°49' E 035°00'0 0.0
2017-Apr-23 19:58N 32°49' E 035°00'0 0.0
2017-Apr-23 19:28N 32°49' E 035°00'0 0.0
2017-Apr-23 18:58N 32°49' E 035°00'1 1.3
2017-Apr-23 18:30N 32°49' E 035°01'2 3.6
2017-Apr-23 18:00N 32°51' E 035°00'1 2.4
2017-Apr-23 17:30N 32°52' E 034°59'4 7.2
2017-Apr-23 17:00N 32°53' E 034°55'713.7
2017-Apr-23 16:30N 32°49' E 034°49'815.2
2017-Apr-23 16:00N 32°42' E 034°46'815.2
2017-Apr-23 15:30N 32°35' E 034°43'815.1
2017-Apr-23 15:00N 32°28' E 034°41'714.9
2017-Apr-23 14:30N 32°20' E 034°38'1515.0
2017-Apr-23 13:30N 32°06' E 034°33'15 9.7
2017-Apr-23 11:58N 31°52' E 034°38'1 0.1
2017-Apr-23 03:11N 31°51' E 034°38'1 4.1
2017-Apr-23 03:00N 31°52' E 034°38'3 0.7
2017-Apr-22 23:05N 31°51' E 034°35'0 0.1
2017-Apr-22 22:53N 31°51' E 034°35'0 0.1
2017-Apr-22 22:23N 31°51' E 034°35'0 0.0
2017-Apr-22 21:53N 31°51' E 034°35'0 0.1
2017-Apr-22 21:29N 31°51' E 034°35'0 0.0
2017-Apr-22 20:59N 31°51' E 034°35'0 0.2
2017-Apr-22 20:29N 31°51' E 034°35'0 0.0
2017-Apr-22 19:56N 31°51' E 034°35'0 0.0
2017-Apr-22 19:29N 31°51' E 034°35'0 0.0
2017-Apr-22 18:59N 31°51' E 034°35'0 0.0
2017-Apr-22 18:29N 31°51' E 034°35'0 0.0
2017-Apr-22 17:59N 31°51' E 034°35'0 0.0
2017-Apr-22 17:29N 31°51' E 034°35'0 0.0
2017-Apr-22 16:56N 31°51' E 034°35'0 0.1
2017-Apr-22 16:29N 31°51' E 034°35'0 0.1
2017-Apr-22 15:59N 31°51' E 034°35'0 0.0
2017-Apr-22 15:29N 31°51' E 034°35'0 0.1
2017-Apr-22 14:59N 31°51' E 034°35'1 1.9
2017-Apr-22 14:27N 31°51' E 034°33'4716.7
2017-Apr-22 11:38N 32°12' E 033°44'317.8
2017-Apr-22 11:29N 32°13' E 033°41'917.8
2017-Apr-22 11:00N 32°17' E 033°32'917.8
2017-Apr-22 10:29N 32°22' E 033°23'818.0
2017-Apr-22 10:00N 32°26' E 033°14'917.9
2017-Apr-22 09:30N 32°30' E 033°05'2218.2
2017-Apr-22 08:18N 32°41' E 032°42'517.6
2017-Apr-22 08:01N 32°45' E 032°38'917.8
2017-Apr-22 07:30N 32°51' E 032°30'917.7
2017-Apr-22 07:00N 32°56' E 032°21'917.6
2017-Apr-22 06:30N 33°01' E 032°13'917.4
2017-Apr-22 06:00N 33°06' E 032°04'917.4
2017-Apr-22 05:31N 33°11' E 031°56'917.5
2017-Apr-22 05:00N 33°17' E 031°47'917.7
2017-Apr-22 04:31N 33°22' E 031°39'1017.6
2017-Apr-22 03:56N 33°27' E 031°29'42415.2
2017-Apr-21 00:08N 37°16' E 024°12'514.3
2017-Apr-20 23:46N 37°20' E 024°08'414.4
2017-Apr-20 23:30N 37°23' E 024°05'714.4
2017-Apr-20 23:00N 37°29' E 023°59'714.1
2017-Apr-20 22:30N 37°33' E 023°52'714.3
2017-Apr-20 22:00N 37°38' E 023°45'714.3
2017-Apr-20 21:30N 37°44' E 023°40'714.6
2017-Apr-20 21:00N 37°50' E 023°37'612.8
2017-Apr-20 20:31N 37°57' E 023°36'1 1.8
2017-Apr-20 19:59N 37°58' E 023°36'0 0.0
2017-Apr-20 19:29N 37°58' E 023°36'0 0.0
2017-Apr-20 18:59N 37°58' E 023°36'0 0.0
2017-Apr-20 18:29N 37°58' E 023°36'0 0.0
2017-Apr-20 17:59N 37°58' E 023°36'0 0.0
2017-Apr-20 17:29N 37°58' E 023°36'0 0.0
2017-Apr-20 16:59N 37°58' E 023°36'0 0.0
2017-Apr-20 16:29N 37°58' E 023°36'0 0.0
2017-Apr-20 15:59N 37°58' E 023°36'0 0.0
2017-Apr-20 15:29N 37°58' E 023°36'0 0.0
2017-Apr-20 14:56N 37°58' E 023°36'0 0.0
2017-Apr-20 14:29N 37°58' E 023°36'0 0.0
2017-Apr-20 13:29N 37°58' E 023°36'0 0.0
2017-Apr-20 12:59N 37°58' E 023°36'0 0.0
2017-Apr-20 12:29N 37°58' E 023°36'0 0.0
2017-Apr-20 11:59N 37°58' E 023°36'0 0.0
2017-Apr-20 11:29N 37°58' E 023°36'0 0.0
2017-Apr-20 10:59N 37°58' E 023°36'0 0.0
2017-Apr-20 10:29N 37°58' E 023°36'0 0.0
2017-Apr-20 09:59N 37°58' E 023°36'0 0.0
2017-Apr-20 09:29N 37°58' E 023°36'0 0.0
2017-Apr-20 08:59N 37°58' E 023°36'0 0.0
2017-Apr-20 08:30N 37°58' E 023°36'1 1.1
2017-Apr-20 08:00N 37°57' E 023°36'2 4.8
2017-Apr-20 07:30N 37°55' E 023°36'0 0.8
2017-Apr-20 07:00N 37°54' E 023°36'0 0.5
2017-Apr-20 06:30N 37°54' E 023°36'1 2.8
2017-Apr-20 06:00N 37°53' E 023°35'611.0
2017-Apr-20 05:30N 37°48' E 023°32'0 0.7
2017-Apr-20 04:58N 37°47' E 023°32'0 0.1
2017-Apr-20 04:28N 37°47' E 023°32'0 0.0
2017-Apr-20 03:58N 37°47' E 023°32'0 0.0
2017-Apr-20 03:28N 37°47' E 023°32'0 0.0
2017-Apr-20 02:58N 37°47' E 023°32'0 0.0
2017-Apr-20 02:28N 37°47' E 023°32'0 0.0
2017-Apr-20 01:58N 37°47' E 023°32'0 0.0
2017-Apr-20 01:28N 37°47' E 023°32'0 0.1
2017-Apr-20 00:58N 37°47' E 023°32'0 0.0
2017-Apr-20 00:28N 37°47' E 023°32'0 0.0
2017-Apr-19 23:58N 37°47' E 023°32'0 0.1
2017-Apr-19 23:28N 37°47' E 023°32'0 0.1
2017-Apr-19 22:58N 37°47' E 023°32'0 0.0
2017-Apr-19 22:28N 37°47' E 023°32'0 0.1
2017-Apr-19 21:58N 37°47' E 023°32'0 0.0
2017-Apr-19 21:28N 37°47' E 023°32'0 0.0
2017-Apr-19 20:58N 37°48' E 023°32'0 0.1
2017-Apr-19 20:28N 37°48' E 023°32'0 0.0
2017-Apr-19 19:58N 37°48' E 023°32'0 0.1
2017-Apr-19 19:28N 37°48' E 023°32'0 0.0
2017-Apr-19 18:58N 37°48' E 023°32'0 0.0
2017-Apr-19 18:28N 37°47' E 023°32'0 0.1
2017-Apr-19 17:58N 37°48' E 023°32'0 0.0
2017-Apr-19 17:28N 37°48' E 023°32'0 0.1
2017-Apr-19 16:58N 37°47' E 023°32'0 0.1
2017-Apr-19 16:28N 37°48' E 023°32'0 0.1
2017-Apr-19 15:58N 37°48' E 023°32'0 0.0
2017-Apr-19 15:28N 37°47' E 023°32'0 0.0
2017-Apr-19 14:58N 37°48' E 023°32'0 0.2
2017-Apr-19 14:28N 37°47' E 023°32'3 2.8
2017-Apr-19 13:30N 37°50' E 023°34'611.3
2017-Apr-19 13:00N 37°48' E 023°41'713.3
2017-Apr-19 12:30N 37°42' E 023°44'714.3
2017-Apr-19 12:00N 37°35' E 023°44'815.0
2017-Apr-19 11:30N 37°28' E 023°41'815.3
2017-Apr-19 11:00N 37°20' E 023°39'2815.4
2017-Apr-19 09:09N 36°53' E 023°30'416.0
2017-Apr-19 08:55N 36°49' E 023°28'816.1
2017-Apr-19 08:24N 36°42' E 023°24'62514.0
2017-Apr-17 11:46N 44°13' E 013°56'415.2
2017-Apr-17 11:30N 44°16' E 013°53'715.1
2017-Apr-17 11:00N 44°23' E 013°47'714.9
2017-Apr-17 10:30N 44°29' E 013°42'714.8
2017-Apr-17 10:00N 44°35' E 013°36'714.8
2017-Apr-17 09:30N 44°41' E 013°31'714.6
2017-Apr-17 09:00N 44°48' E 013°25'714.5
2017-Apr-17 08:30N 44°53' E 013°19'714.6
2017-Apr-17 08:00N 44°60' E 013°13'714.9
2017-Apr-17 07:30N 45°05' E 013°07'714.6
2017-Apr-17 07:00N 45°12' E 013°03'714.9
2017-Apr-17 06:30N 45°19' E 013°01'713.3
2017-Apr-17 06:00N 45°25' E 013°06'714.2
2017-Apr-17 05:30N 45°30' E 013°13'714.4
2017-Apr-17 05:00N 45°34' E 013°21'714.8
2017-Apr-17 04:30N 45°37' E 013°31'612.4
2017-Apr-17 04:01N 45°35' E 013°39'4 7.2
2017-Apr-17 03:30N 45°33' E 013°44'0 0.5
2017-Apr-17 02:57N 45°33' E 013°44'0 0.0
2017-Apr-17 02:27N 45°33' E 013°44'0 0.0
2017-Apr-17 01:54N 45°33' E 013°44'0 0.0
2017-Apr-17 01:27N 45°33' E 013°44'0 0.0
2017-Apr-17 01:00N 45°33' E 013°44'0 0.0
2017-Apr-17 00:30N 45°33' E 013°44'0 0.0
2017-Apr-17 00:00N 45°33' E 013°44'0 0.0
2017-Apr-16 23:27N 45°33' E 013°44'0 0.0
2017-Apr-16 23:00N 45°33' E 013°44'0 0.0
2017-Apr-16 22:30N 45°33' E 013°44'0 0.0
2017-Apr-16 22:00N 45°33' E 013°44'0 0.0
2017-Apr-16 21:30N 45°33' E 013°44'0 0.0
2017-Apr-16 21:00N 45°33' E 013°44'0 0.0
2017-Apr-16 20:27N 45°33' E 013°44'0 0.0
2017-Apr-16 20:00N 45°33' E 013°44'0 0.0
2017-Apr-16 19:30N 45°33' E 013°44'0 0.0
2017-Apr-16 19:00N 45°33' E 013°44'0 0.0
2017-Apr-16 18:30N 45°33' E 013°44'0 0.0
2017-Apr-16 18:00N 45°33' E 013°44'0 0.0
2017-Apr-16 17:27N 45°33' E 013°44'0 0.0
2017-Apr-16 16:57N 45°33' E 013°44'0 0.0
2017-Apr-16 16:30N 45°33' E 013°44'0 0.0
2017-Apr-16 15:51N 45°33' E 013°44'0 0.0
2017-Apr-16 15:27N 45°33' E 013°44'0 0.0
2017-Apr-16 15:00N 45°33' E 013°44'0 0.0
2017-Apr-16 14:00N 45°33' E 013°44'0 0.0
2017-Apr-16 13:30N 45°33' E 013°44'0 0.0
2017-Apr-16 13:00N 45°33' E 013°44'0 0.0
2017-Apr-16 12:30N 45°33' E 013°44'0 0.0
2017-Apr-16 12:00N 45°33' E 013°44'0 0.0
2017-Apr-16 11:30N 45°33' E 013°44'0 0.0
2017-Apr-16 11:00N 45°33' E 013°44'0 0.0
2017-Apr-16 10:30N 45°33' E 013°44'0 0.0
2017-Apr-16 10:00N 45°33' E 013°44'0 0.0
2017-Apr-16 09:30N 45°33' E 013°44'0 0.0
2017-Apr-16 09:00N 45°33' E 013°44'0 0.0
2017-Apr-16 08:30N 45°33' E 013°44'0 0.0
2017-Apr-16 07:54N 45°33' E 013°44'0 0.0
2017-Apr-16 07:24N 45°33' E 013°44'0 0.0
2017-Apr-16 07:00N 45°33' E 013°44'0 0.0
2017-Apr-16 06:27N 45°33' E 013°44'0 0.0
2017-Apr-16 05:57N 45°33' E 013°44'0 0.0
2017-Apr-16 05:30N 45°33' E 013°44'0 0.0
2017-Apr-16 05:00N 45°33' E 013°44'0 0.0
2017-Apr-16 04:30N 45°33' E 013°44'0 0.0
2017-Apr-16 03:57N 45°33' E 013°44'0 0.0
2017-Apr-16 03:24N 45°33' E 013°44'0 0.0
2017-Apr-16 03:00N 45°33' E 013°44'0 0.0
2017-Apr-16 02:30N 45°33' E 013°44'0 0.0
2017-Apr-16 02:00N 45°33' E 013°44'0 0.0
2017-Apr-16 01:30N 45°33' E 013°44'0 0.0
2017-Apr-16 00:51N 45°33' E 013°44'0 0.0
2017-Apr-16 00:30N 45°33' E 013°44'0 0.0
2017-Apr-16 00:00N 45°33' E 013°44'0 0.0
2017-Apr-15 23:30N 45°33' E 013°44'0 0.0
2017-Apr-15 22:57N 45°33' E 013°44'0 0.0
2017-Apr-15 22:30N 45°33' E 013°44'0 0.0
2017-Apr-15 22:00N 45°33' E 013°44'0 0.0
2017-Apr-15 21:30N 45°33' E 013°44'0 0.0
2017-Apr-15 21:00N 45°33' E 013°44'0 0.0
2017-Apr-15 20:30N 45°33' E 013°44'0 0.0
2017-Apr-15 20:00N 45°33' E 013°44'0 0.0
2017-Apr-15 19:30N 45°33' E 013°44'0 0.0
2017-Apr-15 19:00N 45°33' E 013°44'0 0.0
2017-Apr-15 18:24N 45°33' E 013°44'0 0.0
2017-Apr-15 18:00N 45°33' E 013°44'0 0.0
2017-Apr-15 17:30N 45°33' E 013°44'0 0.0
2017-Apr-15 16:54N 45°33' E 013°44'0 0.0
2017-Apr-15 16:30N 45°33' E 013°44'0 0.0
2017-Apr-15 15:51N 45°33' E 013°44'0 0.0
2017-Apr-15 15:27N 45°33' E 013°44'0 0.0
2017-Apr-15 15:00N 45°33' E 013°44'0 0.0
2017-Apr-15 14:00N 45°33' E 013°44'2 3.6
2017-Apr-15 13:30N 45°34' E 013°42'510.7
2017-Apr-15 13:00N 45°36' E 013°35'714.6
2017-Apr-15 12:30N 45°43' E 013°37'5 9.8
2017-Apr-15 12:00N 45°47' E 013°33'0 0.1
2017-Apr-15 11:30N 45°47' E 013°33'0 0.0
2017-Apr-15 11:00N 45°47' E 013°33'0 0.0
2017-Apr-15 10:30N 45°47' E 013°33'0 0.0
2017-Apr-15 10:00N 45°47' E 013°33'0 0.0
2017-Apr-15 09:27N 45°47' E 013°33'0 0.0
2017-Apr-15 09:00N 45°47' E 013°33'0 0.0
2017-Apr-15 08:24N 45°47' E 013°33'0 0.0
2017-Apr-15 08:00N 45°47' E 013°33'0 0.0
2017-Apr-15 07:30N 45°47' E 013°33'0 0.0
2017-Apr-15 07:00N 45°47' E 013°33'0 0.0
2017-Apr-15 06:30N 45°47' E 013°33'0 0.0
2017-Apr-15 06:00N 45°47' E 013°33'0 0.0
2017-Apr-15 05:27N 45°47' E 013°33'0 0.0
2017-Apr-15 05:00N 45°47' E 013°33'0 0.0
2017-Apr-15 04:30N 45°47' E 013°33'0 0.0
2017-Apr-15 04:00N 45°47' E 013°33'0 0.0
2017-Apr-15 03:27N 45°47' E 013°33'0 0.0
2017-Apr-15 03:00N 45°47' E 013°33'0 0.0
2017-Apr-15 02:30N 45°47' E 013°33'0 0.0
2017-Apr-15 01:57N 45°47' E 013°33'0 0.0
2017-Apr-15 01:30N 45°47' E 013°33'0 0.0
2017-Apr-15 01:00N 45°47' E 013°33'0 0.0
2017-Apr-15 00:24N 45°47' E 013°33'0 0.0
2017-Apr-15 00:00N 45°47' E 013°33'0 0.0
2017-Apr-14 23:27N 45°47' E 013°33'0 0.0
2017-Apr-14 23:00N 45°47' E 013°33'0 0.0
2017-Apr-14 22:30N 45°47' E 013°33'0 0.0
2017-Apr-14 21:45N 45°47' E 013°33'0 0.0
2017-Apr-14 21:30N 45°47' E 013°33'0 0.0
2017-Apr-14 20:54N 45°47' E 013°33'0 0.0
2017-Apr-14 20:27N 45°47' E 013°33'0 0.0
2017-Apr-14 20:00N 45°47' E 013°33'0 0.0
2017-Apr-14 19:30N 45°47' E 013°33'0 0.0
2017-Apr-14 19:00N 45°47' E 013°33'0 0.0
2017-Apr-14 18:30N 45°47' E 013°33'0 0.0
2017-Apr-14 17:57N 45°47' E 013°33'0 0.0
2017-Apr-14 17:27N 45°47' E 013°33'0 0.0
2017-Apr-14 17:00N 45°47' E 013°33'0 0.0
2017-Apr-14 16:30N 45°47' E 013°33'0 0.0
2017-Apr-14 16:00N 45°47' E 013°33'0 0.0
2017-Apr-14 15:30N 45°47' E 013°33'0 0.0
2017-Apr-14 15:00N 45°47' E 013°33'0 0.0
2017-Apr-14 14:00N 45°47' E 013°33'0 0.0
2017-Apr-14 13:27N 45°47' E 013°33'0 0.0
2017-Apr-14 13:00N 45°47' E 013°33'0 0.0
2017-Apr-14 12:27N 45°47' E 013°33'0 0.0
2017-Apr-14 12:00N 45°47' E 013°33'0 0.0
2017-Apr-14 11:27N 45°47' E 013°33'0 0.0
2017-Apr-14 11:00N 45°47' E 013°33'0 0.0
2017-Apr-14 10:30N 45°47' E 013°33'0 0.0
2017-Apr-14 09:54N 45°47' E 013°33'0 0.0
2017-Apr-14 09:30N 45°47' E 013°33'  

Dump ship's entire track history